Time;durP1;ratioP1;P1;durP2;ratioP2;P2;SDS_P1;SDS_P2;PMS_P1;PMS_P2;Temp;Humidity;BMP_temperature;BMP_pressure;BME280_temperature;BME280_humidity;BME280_pressure;Samples;Min_cycle;Max_cycle;Signal;HPM_P1;HPM_P2
2022/03/16 00:00:00;;;;;;;36.97;21.90;;;;;;;10.39;55.83;100652.34;5038903;28;20074;-74
2022/03/16 00:02:28;;;;;;;38.35;21.95;;;;;;;10.35;55.63;100655.34;5037669;28;20052;-75
2022/03/16 00:04:56;;;;;;;39.50;21.23;;;;;;;10.34;55.68;100653.75;5056084;28;20028;-75
2022/03/16 00:07:22;;;;;;;42.05;22.75;;;;;;;10.35;55.80;100661.06;5021893;28;20458;-74
2022/03/16 00:09:48;;;;;;;42.70;22.40;;;;;;;10.29;56.34;100659.28;5056128;28;20089;-75
2022/03/16 00:12:16;;;;;;;34.45;21.35;;;;;;;10.22;56.45;100659.53;5055638;28;20471;-74
2022/03/16 00:14:43;;;;;;;36.97;21.67;;;;;;;10.18;56.42;100667.44;5021313;28;20037;-75
2022/03/16 00:17:10;;;;;;;41.00;23.65;;;;;;;10.17;56.31;100665.84;5021530;28;20037;-74
2022/03/16 00:19:36;;;;;;;42.53;21.85;;;;;;;10.16;56.82;100656.50;5021487;28;20401;-74
2022/03/16 00:22:04;;;;;;;41.85;23.30;;;;;;;10.15;56.32;100662.66;5037790;28;20029;-75
2022/03/16 00:24:30;;;;;;;44.33;23.40;;;;;;;10.09;56.52;100662.47;5021149;28;20036;-75
2022/03/16 00:26:56;;;;;;;44.28;24.13;;;;;;;10.06;57.75;100656.94;5037510;28;20454;-74
2022/03/16 00:29:23;;;;;;;45.47;23.67;;;;;;;10.04;58.45;100659.44;5037486;28;20061;-74
2022/03/16 00:31:49;;;;;;;38.85;22.80;;;;;;;9.98;59.17;100662.09;5020916;28;20033;-74
2022/03/16 00:34:16;;;;;;;38.30;22.00;;;;;;;9.91;58.58;100666.03;5055445;28;20037;-74
2022/03/16 00:36:41;;;;;;;41.80;24.20;;;;;;;9.92;58.96;100669.66;5037478;28;20029;-74
2022/03/16 00:39:07;;;;;;;39.17;21.73;;;;;;;9.90;59.33;100664.44;5020915;28;20181;-74
2022/03/16 00:41:35;;;;;;;38.80;23.02;;;;;;;9.88;59.95;100660.47;5020714;28;20393;-75
2022/03/16 00:44:15;;;;;;;40.20;23.80;;;;;;;9.88;60.03;100666.16;5020295;28;20036;-75
2022/03/16 00:46:41;;;;;;;42.45;24.42;;;;;;;9.85;60.20;100665.03;5055239;28;20063;-75
2022/03/16 00:49:07;;;;;;;35.92;22.08;;;;;;;9.85;60.31;100661.41;5036996;28;20052;-75
2022/03/16 00:51:33;;;;;;;37.95;23.15;;;;;;;9.85;60.19;100667.09;5054214;28;20401;-75
2022/03/16 00:53:59;;;;;;;42.90;24.33;;;;;;;9.83;59.96;100663.91;5033355;28;20487;-74
2022/03/16 00:56:26;;;;;;;42.67;24.40;;;;;;;9.80;60.63;100667.69;5033500;28;20585;-75
2022/03/16 00:58:52;;;;;;;41.72;25.95;;;;;;;9.81;60.26;100672.13;5033568;28;20033;-75
2022/03/16 01:01:18;;;;;;;45.72;25.30;;;;;;;9.79;61.06;100668.94;5033963;28;20117;-74
2022/03/16 01:03:46;;;;;;;44.30;24.38;;;;;;;9.76;61.32;100669.88;5034985;28;20454;-75
2022/03/16 01:06:15;;;;;;;41.75;23.48;;;;;;;9.75;61.52;100665.44;5035019;28;20040;-74
2022/03/16 01:08:45;;;;;;;43.08;23.50;;;;;;;9.75;61.04;100666.25;5034452;28;20025;-74
2022/03/16 01:11:17;;;;;;;43.22;25.70;;;;;;;9.71;61.64;100665.59;5031983;28;20103;-75
2022/03/16 01:13:43;;;;;;;46.38;25.45;;;;;;;9.65;61.31;100661.75;5033095;28;20147;-75
2022/03/16 01:16:13;;;;;;;39.35;23.98;;;;;;;9.65;61.67;100663.81;5032007;28;20059;-75
2022/03/16 01:18:46;;;;;;;45.03;23.70;;;;;;;9.58;62.86;100666.91;5033095;28;20540;-75
2022/03/16 01:21:12;;;;;;;41.22;24.88;;;;;;;9.50;62.39;100663.53;5033539;28;20025;-74
2022/03/16 01:23:37;;;;;;;39.55;23.85;;;;;;;9.48;62.25;100663.19;5033423;28;20029;-74
2022/03/16 01:26:04;;;;;;;43.67;26.77;;;;;;;9.50;63.13;100663.53;5016368;28;20109;-75
2022/03/16 01:28:31;;;;;;;44.83;26.83;;;;;;;9.46;63.15;100669.38;5034477;28;20032;-73
2022/03/16 01:31:00;;;;;;;46.60;26.10;;;;;;;9.33;63.93;100671.47;5016701;28;20056;-74
2022/03/16 01:33:26;;;;;;;48.08;28.73;;;;;;;9.22;64.14;100671.06;5032996;28;20463;-74
2022/03/16 01:35:53;;;;;;;48.38;29.65;;;;;;;9.07;66.57;100670.00;5034332;28;20095;-75
2022/03/16 01:38:18;;;;;;;47.28;27.75;;;;;;;8.99;66.65;100674.31;5016167;28;20045;-74
2022/03/16 01:40:45;;;;;;;50.28;28.90;;;;;;;8.77;69.12;100679.97;5016329;28;20508;-74
2022/03/16 01:43:11;;;;;;;48.58;27.17;;;;;;;8.56;69.37;100678.63;5015957;28;20037;-74
2022/03/16 01:45:36;;;;;;;50.20;29.40;;;;;;;8.35;71.88;100682.16;5016194;28;20059;-74
2022/03/16 01:48:03;;;;;;;45.63;27.27;;;;;;;8.31;70.44;100678.66;5033855;28;20029;-74
2022/03/16 01:50:30;;;;;;;47.42;27.40;;;;;;;8.29;71.43;100683.94;5032525;28;20048;-74
2022/03/16 01:52:56;;;;;;;52.38;29.35;;;;;;;8.30;71.28;100687.59;5015971;28;20504;-74
2022/03/16 01:55:22;;;;;;;49.42;29.15;;;;;;;8.19;71.77;100690.75;5049449;28;20053;-74
2022/03/16 01:57:48;;;;;;;42.70;26.65;;;;;;;8.17;72.09;100696.09;5053783;28;20063;-76
2022/03/16 02:00:15;;;;;;;41.75;24.70;;;;;;;8.08;73.04;100707.31;5053784;28;20040;-74
2022/03/16 02:02:42;;;;;;;41.58;24.60;;;;;;;8.01;73.51;100696.97;5019372;28;20029;-75
2022/03/16 02:05:11;;;;;;;35.33;23.98;;;;;;;7.93;74.02;100704.13;5053521;28;20025;-75
2022/03/16 02:07:37;;;;;;;38.85;24.00;;;;;;;7.92;74.48;100710.25;5035917;28;20079;-76
2022/03/16 02:10:05;;;;;;;34.92;23.33;;;;;;;7.88;74.28;100701.84;5035732;28;20029;-75
2022/03/16 02:12:42;;;;;;;39.90;24.30;;;;;;;7.87;74.99;100714.44;5036060;28;20036;-75
2022/03/16 02:15:10;;;;;;;35.45;22.80;;;;;;;7.80;76.06;100706.91;5035615;28;20475;-74
2022/03/16 02:17:35;;;;;;;34.90;23.85;;;;;;;7.73;79.36;100720.53;5035705;28;20033;-74
2022/03/16 02:20:03;;;;;;;32.60;22.88;;;;;;;7.67;78.43;100725.16;5053696;28;20036;-75
2022/03/16 02:22:30;;;;;;;39.25;25.00;;;;;;;7.61;79.23;100726.94;5035657;28;20044;-75
2022/03/16 02:24:55;;;;;;;40.50;25.00;;;;;;;7.56;79.93;100733.97;5019059;28;20094;-74
2022/03/16 02:27:21;;;;;;;35.67;25.48;;;;;;;7.49;81.12;100727.72;5053375;28;20066;-74
2022/03/16 02:29:46;;;;;;;38.67;24.83;;;;;;;7.49;82.17;100733.38;5035496;28;20090;-74
2022/03/16 02:32:14;;;;;;;37.45;25.75;;;;;;;7.46;81.97;100743.56;5052932;28;20025;-74
2022/03/16 02:34:40;;;;;;;39.03;25.65;;;;;;;7.48;83.17;100748.78;5035267;28;20064;-75
2022/03/16 02:37:07;;;;;;;36.83;25.60;;;;;;;7.45;81.86;100744.03;5052852;28;20098;-74
2022/03/16 02:39:34;;;;;;;42.10;25.48;;;;;;;7.30;82.09;100741.56;5035411;28;20029;-74
2022/03/16 02:42:02;;;;;;;37.90;27.88;;;;;;;7.38;83.74;100756.34;5035479;28;20027;-74
2022/03/16 02:44:29;;;;;;;36.47;25.70;;;;;;;7.35;83.94;100760.06;5053310;28;20032;-75
2022/03/16 02:46:54;;;;;;;39.00;26.27;;;;;;;7.38;84.45;100764.84;5035195;28;20024;-74
2022/03/16 02:49:19;;;;;;;37.55;26.70;;;;;;;7.35;85.53;100771.41;5053339;28;20060;-76
2022/03/16 02:51:47;;;;;;;40.10;26.08;;;;;;;7.40;85.41;100772.91;5035465;28;20033;-75
2022/03/16 02:54:13;;;;;;;34.88;24.98;;;;;;;7.38;84.55;100773.34;5034500;28;20041;-74
2022/03/16 02:56:38;;;;;;;38.25;26.08;;;;;;;7.41;85.18;100774.47;5052872;28;20079;-75
2022/03/16 02:59:04;;;;;;;38.35;26.92;;;;;;;7.38;85.59;100785.47;5034917;28;20100;-75
2022/03/16 03:01:37;;;;;;;35.83;25.38;;;;;;;7.39;85.12;100780.59;5034971;28;20036;-75
2022/03/16 03:04:03;;;;;;;37.53;26.25;;;;;;;7.37;86.34;100781.03;5044285;28;20044;-72
2022/03/16 03:06:30;;;;;;;38.38;25.80;;;;;;;7.38;84.83;100779.00;5072933;28;20113;-72
2022/03/16 03:08:57;;;;;;;38.83;26.33;;;;;;;7.37;86.03;100800.88;5074490;28;20029;-75
2022/03/16 03:11:24;;;;;;;38.50;25.60;;;;;;;7.39;84.97;100791.94;5071629;28;20090;-76
2022/03/16 03:13:49;;;;;;;37.40;25.17;;;;;;;7.37;85.98;100798.03;5058323;28;20032;-75
2022/03/16 03:16:16;;;;;;;33.55;25.52;;;;;;;7.37;86.88;100800.88;5057238;28;20037;-75
2022/03/16 03:18:41;;;;;;;37.10;26.73;;;;;;;7.37;86.59;100798.03;5022201;28;20033;-74
2022/03/16 03:21:21;;;;;;;37.90;26.58;;;;;;;7.38;84.99;100802.47;5056832;28;20082;-73
2022/03/16 03:23:47;;;;;;;42.88;27.35;;;;;;;7.32;84.90;100804.25;5056686;28;20024;-75
2022/03/16 03:26:13;;;;;;;40.80;27.17;;;;;;;7.28;86.57;100806.38;5038837;28;20037;-75
2022/03/16 03:28:53;;;;;;;38.05;27.08;;;;;;;7.28;86.65;100812.03;5038793;28;20025;-74
2022/03/16 03:31:19;;;;;;;39.60;27.70;;;;;;;7.25;86.81;100810.09;5057926;28;20025;-75
2022/03/16 03:33:45;;;;;;;37.70;27.63;;;;;;;7.26;88.01;100822.22;5058589;28;20112;-75
2022/03/16 03:36:11;;;;;;;39.90;27.30;;;;;;;7.20;88.09;100807.78;5057828;28;20060;-76
2022/03/16 03:38:38;;;;;;;37.95;26.83;;;;;;;7.30;87.24;100820.13;5057640;28;20190;-74
2022/03/16 03:41:04;;;;;;;39.35;27.40;;;;;;;7.25;88.08;100812.16;5038679;28;20385;-76
2022/03/16 03:43:30;;;;;;;38.17;26.90;;;;;;;7.24;88.49;100816.22;5023091;28;20177;-74
2022/03/16 03:45:55;;;;;;;39.58;26.35;;;;;;;7.26;89.90;100811.69;5040294;28;20458;-75
2022/03/16 03:48:22;;;;;;;43.92;28.35;;;;;;;7.28;89.99;100819.75;5041347;28;20037;-75
2022/03/16 03:50:47;;;;;;;37.08;26.60;;;;;;;7.25;89.43;100821.41;5059279;28;20035;-75
2022/03/16 03:53:15;;;;;;;38.90;25.45;;;;;;;7.31;87.50;100833.00;5058462;28;20122;-75
2022/03/16 03:55:42;;;;;;;36.67;25.48;;;;;;;7.26;88.59;100831.50;5057701;28;20045;-75
2022/03/16 03:58:07;;;;;;;40.45;26.95;;;;;;;7.21;88.73;100832.03;5056929;28;20048;-76
2022/03/16 04:00:33;;;;;;;35.92;26.50;;;;;;;7.24;88.88;100838.88;5055912;28;20437;-73
2022/03/16 04:02:59;;;;;;;35.58;26.20;;;;;;;7.26;90.01;100839.22;5056398;28;20025;-74
2022/03/16 04:05:24;;;;;;;33.60;24.80;;;;;;;7.24;89.40;100830.38;5055469;28;20028;-76
2022/03/16 04:07:50;;;;;;;38.17;26.48;;;;;;;7.15;88.85;100821.72;5055824;28;20078;-74
2022/03/16 04:10:17;;;;;;;37.33;25.48;;;;;;;7.31;88.01;100842.31;5055640;28;20059;-75
2022/03/16 04:12:57;;;;;;;41.05;27.52;;;;;;;7.29;89.66;100855.34;5021439;28;20032;-74
2022/03/16 04:15:22;;;;;;;42.60;27.77;;;;;;;7.26;89.67;100859.03;5037577;28;20390;-74
2022/03/16 04:17:48;;;;;;;38.15;25.92;;;;;;;7.32;88.84;100869.41;5054340;28;20036;-74
2022/03/16 04:20:14;;;;;;;36.13;27.65;;;;;;;7.29;91.20;100864.66;5037913;28;20036;-74
2022/03/16 04:22:39;;;;;;;40.42;28.27;;;;;;;7.25;93.17;100865.97;5055259;28;20029;-74
2022/03/16 04:25:07;;;;;;;38.50;27.35;;;;;;;7.31;93.43;100884.00;5055737;28;20028;-74
2022/03/16 04:27:33;;;;;;;39.38;28.90;;;;;;;7.28;93.32;100882.06;5055396;28;20082;-74
2022/03/16 04:29:59;;;;;;;38.20;26.95;;;;;;;7.27;92.75;100886.94;5055921;28;20021;-75
2022/03/16 04:32:25;;;;;;;39.80;26.42;;;;;;;7.26;92.80;100884.53;5055543;28;20029;-75
2022/03/16 04:34:52;;;;;;;38.28;27.25;;;;;;;7.26;93.09;100899.50;5038914;28;20539;-75
2022/03/16 04:37:17;;;;;;;39.53;27.85;;;;;;;7.29;92.57;100898.66;5055434;28;20024;-76
2022/03/16 04:39:43;;;;;;;36.30;27.58;;;;;;;7.15;91.91;100875.53;5055407;28;20020;-75
2022/03/16 04:42:11;;;;;;;37.60;26.88;;;;;;;7.33;90.61;100907.06;5054572;28;20029;-75
2022/03/16 04:44:37;;;;;;;40.83;29.23;;;;;;;7.31;91.20;100915.97;5053532;28;20024;-75
2022/03/16 04:47:04;;;;;;;46.03;28.55;;;;;;;7.28;91.33;100908.38;5035077;28;20501;-74
2022/03/16 04:49:30;;;;;;;39.75;28.58;;;;;;;7.31;91.23;100912.34;5017710;28;20032;-74
2022/03/16 04:51:57;;;;;;;42.72;28.70;;;;;;;7.34;91.53;100922.81;5031850;28;20037;-75
2022/03/16 04:54:22;;;;;;;43.08;30.13;;;;;;;7.33;91.30;100913.53;5034499;28;20482;-75
2022/03/16 04:56:48;;;;;;;40.65;30.05;;;;;;;7.41;90.92;100933.97;5034669;28;20037;-75
2022/03/16 04:59:28;;;;;;;44.50;31.38;;;;;;;7.42;90.70;100934.75;5035093;28;20025;-75
2022/03/16 05:01:55;;;;;;;44.78;30.67;;;;;;;7.42;91.30;100934.75;5034599;28;20037;-75
2022/03/16 05:04:21;;;;;;;47.38;31.85;;;;;;;7.41;91.23;100938.81;5000333;28;20025;-74
2022/03/16 05:06:48;;;;;;;47.17;34.13;;;;;;;7.38;91.07;100924.31;5015874;28;20040;-74
2022/03/16 05:09:13;;;;;;;51.55;34.38;;;;;;;7.43;90.44;100933.53;5034227;28;20041;-74
2022/03/16 05:11:42;;;;;;;52.45;35.17;;;;;;;7.43;90.37;100939.19;5034685;28;20029;-75
2022/03/16 05:14:09;;;;;;;51.90;36.58;;;;;;;7.44;90.57;100941.59;5016919;28;20045;-75
2022/03/16 05:16:36;;;;;;;60.28;37.95;;;;;;;7.47;89.53;100942.75;5000621;28;20041;-75
2022/03/16 05:19:02;;;;;;;61.83;39.65;;;;;;;7.46;90.03;100933.44;5013631;28;20560;-74
2022/03/16 05:21:29;;;;;;;60.22;39.63;;;;;;;7.45;90.44;100943.16;5016785;28;20483;-75
2022/03/16 05:23:55;;;;;;;60.95;40.58;;;;;;;7.50;90.76;100944.72;5034604;28;20025;-75
2022/03/16 05:26:21;;;;;;;62.15;40.92;;;;;;;7.39;90.48;100930.78;5016802;28;20466;-75
2022/03/16 05:28:52;;;;;;;64.28;41.03;;;;;;;7.54;89.58;100948.25;5034182;28;20025;-75
2022/03/16 05:31:19;;;;;;;69.73;43.00;;;;;;;7.55;90.03;100950.63;5034429;28;20021;-74
2022/03/16 05:33:46;;;;;;;60.90;41.03;;;;;;;7.57;89.65;100953.00;5000284;28;20087;-74
2022/03/16 05:36:11;;;;;;;62.50;42.75;;;;;;;7.50;89.81;100945.47;5034046;28;20053;-74
2022/03/16 05:38:39;;;;;;;68.05;43.08;;;;;;;7.59;89.40;100959.06;5033071;28;20064;-74
2022/03/16 05:41:05;;;;;;;63.28;40.25;;;;;;;7.59;89.78;100957.03;5034358;28;20462;-75
2022/03/16 05:43:32;;;;;;;63.60;39.42;;;;;;;7.62;89.09;100961.78;5052932;28;20025;-75
2022/03/16 05:45:58;;;;;;;61.90;39.85;;;;;;;7.65;89.10;100958.06;5036414;28;20029;-74
2022/03/16 05:48:27;;;;;;;59.17;40.38;;;;;;;7.67;89.33;100971.81;5037370;28;20045;-75
2022/03/16 05:50:54;;;;;;;64.78;40.65;;;;;;;7.70;89.30;100965.22;5037135;28;20428;-77
2022/03/16 05:53:21;;;;;;;61.83;40.55;;;;;;;7.73;90.07;100970.03;5038836;28;20032;-73
2022/03/16 05:55:47;;;;;;;63.70;39.78;;;;;;;7.80;90.87;100972.69;5055692;28;20049;-75
2022/03/16 05:58:13;;;;;;;72.38;43.92;;;;;;;7.91;91.05;100978.88;5055281;28;20039;-74
2022/03/16 06:00:42;;;;;;;69.82;46.15;;;;;;;7.94;90.60;100983.69;5037429;28;20072;-74
2022/03/16 06:03:11;;;;;;;63.30;39.97;;;;;;;8.03;89.83;100983.84;5055671;28;20474;-75
2022/03/16 06:05:37;;;;;;;62.10;41.40;;;;;;;8.06;89.80;100973.63;5055378;28;20519;-74
2022/03/16 06:08:03;;;;;;;60.35;39.70;;;;;;;8.02;89.28;100955.91;5038093;28;20033;-75
2022/03/16 06:10:30;;;;;;;51.80;36.28;;;;;;;8.15;88.79;100968.91;5055886;28;20020;-75
2022/03/16 06:13:17;;;;;;;58.65;37.88;;;;;;;8.40;87.80;100993.81;5036824;28;20500;-75
2022/03/16 06:15:43;;;;;;;50.60;35.50;;;;;;;8.47;86.58;100995.66;5053169;28;20110;-73
2022/03/16 06:18:12;;;;;;;54.22;35.55;;;;;;;8.55;85.00;101003.53;5035395;28;20044;-76
2022/03/16 06:20:38;;;;;;;53.50;34.63;;;;;;;8.67;82.64;101004.84;5019620;28;20036;-74
2022/03/16 06:23:05;;;;;;;51.03;35.90;;;;;;;8.74;82.30;101000.97;5035709;28;20413;-76
2022/03/16 06:25:33;;;;;;;52.25;35.22;;;;;;;8.87;81.37;101008.31;5052811;28;20401;-74
2022/03/16 06:27:59;;;;;;;49.60;34.33;;;;;;;8.91;80.79;100982.63;5052875;28;20079;-78
2022/03/16 06:30:24;;;;;;;60.17;36.85;;;;;;;9.15;80.99;101006.66;5053119;28;20461;-75
2022/03/16 06:32:51;;;;;;;54.38;34.90;;;;;;;9.32;79.48;101013.06;5035013;28;20448;-74
2022/03/16 06:35:20;;;;;;;51.00;35.15;;;;;;;9.40;80.19;101011.59;5021719;28;20128;-72
2022/03/16 06:37:46;;;;;;;54.10;34.38;;;;;;;9.50;78.88;101016.94;5051036;28;20056;-75
2022/03/16 06:40:20;;;;;;;52.50;33.15;;;;;;;9.59;77.54;101041.03;5053036;28;20025;-75
2022/03/16 06:42:52;;;;;;;47.72;32.33;;;;;;;9.58;76.56;101036.59;5059334;28;20508;-75
2022/03/16 06:45:18;;;;;;;53.50;33.40;;;;;;;9.56;76.53;101039.13;5041721;28;20052;-75
2022/03/16 06:47:44;;;;;;;45.97;32.50;;;;;;;9.59;76.35;101046.72;5059282;28;20429;-75
2022/03/16 06:50:09;;;;;;;54.80;36.53;;;;;;;9.56;76.19;101044.81;5059238;28;20064;-75
2022/03/16 06:52:36;;;;;;;57.90;36.05;;;;;;;9.63;75.83;101058.78;5041193;28;20113;-76
2022/03/16 06:55:02;;;;;;;54.97;34.45;;;;;;;9.60;75.95;101057.66;5058404;28;20132;-76
2022/03/16 06:57:30;;;;;;;58.95;36.20;;;;;;;9.71;75.60;101068.72;5059911;28;20028;-77
2022/03/16 06:59:56;;;;;;;56.03;37.85;;;;;;;9.73;75.56;101067.00;5059672;28;20031;-74
2022/03/16 07:02:24;;;;;;;56.28;36.38;;;;;;;9.87;75.07;101074.28;5038171;28;20056;-74
2022/03/16 07:04:49;;;;;;;57.88;37.55;;;;;;;9.93;74.66;101070.41;5029377;28;20022;-73
2022/03/16 07:07:15;;;;;;;57.42;37.60;;;;;;;10.09;74.97;101077.22;5057891;28;20452;-72
2022/03/16 07:09:44;;;;;;;60.10;36.08;;;;;;;10.16;74.60;101062.81;5011411;28;20025;-72
2022/03/16 07:12:11;;;;;;;56.47;36.15;;;;;;;10.47;73.26;101077.19;5058003;28;20089;-72
2022/03/16 07:14:37;;;;;;;58.75;35.83;;;;;;;10.66;72.68;101081.81;5040672;28;20476;-73
2022/03/16 07:17:08;;;;;;;58.20;36.00;;;;;;;10.86;71.62;101084.34;5040144;28;20063;-74
2022/03/16 07:19:35;;;;;;;63.65;37.90;;;;;;;11.12;70.83;101080.94;5058131;28;20028;-73
2022/03/16 07:22:02;;;;;;;69.25;37.83;;;;;;;11.41;69.08;101079.84;5039681;28;20405;-73
2022/03/16 07:24:33;;;;;;;70.82;44.83;;;;;;;11.52;67.86;101083.91;5057841;28;20021;-74
2022/03/16 07:27:03;;;;;;;67.90;39.40;;;;;;;11.57;68.56;101079.63;5056054;28;20065;-72
2022/03/16 07:29:32;;;;;;;54.60;36.67;;;;;;;11.64;67.98;101079.38;5040350;28;20055;-73
2022/03/16 07:31:59;;;;;;;64.00;38.22;;;;;;;11.72;66.66;101091.28;5057865;28;20025;-72
2022/03/16 07:34:26;;;;;;;75.28;47.42;;;;;;;11.77;65.06;101099.28;5058264;28;20024;-73
2022/03/16 07:36:58;;;;;;;82.18;50.00;;;;;;;11.79;65.70;101099.63;5041117;28;20112;-73
2022/03/16 07:39:26;;;;;;;85.22;51.83;;;;;;;12.22;64.79;101101.53;5058111;28;20049;-73
2022/03/16 07:41:51;;;;;;;85.60;55.25;;;;;;;12.80;63.47;101104.34;5057996;28;20065;-74
2022/03/16 07:44:16;;;;;;;91.10;55.17;;;;;;;13.40;61.11;101111.03;5058965;28;20032;-72
2022/03/16 07:46:48;;;;;;;87.55;54.15;;;;;;;14.28;59.60;101103.13;5041008;28;20029;-72
2022/03/16 07:49:14;;;;;;;79.22;49.50;;;;;;;14.62;57.41;101106.78;5040806;28;20032;-73
2022/03/16 07:51:39;;;;;;;74.32;47.58;;;;;;;14.88;57.11;101095.59;5039314;28;20032;-73
2022/03/16 07:54:06;;;;;;;77.15;46.13;;;;;;;15.68;55.25;101101.09;5034025;28;20072;-73
2022/03/16 07:56:32;;;;;;;91.03;50.95;;;;;;;16.62;52.25;101107.59;5034805;28;20032;-74
2022/03/16 07:59:01;;;;;;;90.10;52.10;;;;;;;16.97;49.62;101104.63;5018267;28;20041;-72
2022/03/16 08:01:27;;;;;;;75.32;48.75;;;;;;;16.81;49.32;101111.00;5035198;28;20056;-73
2022/03/16 08:03:53;;;;;;;76.57;47.80;;;;;;;16.40;49.99;101113.78;5035617;28;20029;-73
2022/03/16 08:06:20;;;;;;;68.95;46.70;;;;;;;16.19;50.96;101117.88;5034777;28;20163;-73
2022/03/16 08:08:46;;;;;;;73.10;47.38;;;;;;;16.41;50.10;101114.56;5034864;28;20056;-73
2022/03/16 08:11:13;;;;;;;76.85;47.10;;;;;;;16.96;49.17;101116.69;5035143;28;20430;-74
2022/03/16 08:13:40;;;;;;;73.60;46.17;;;;;;;17.60;47.68;101110.63;5034476;28;20414;-73
2022/03/16 08:16:05;;;;;;;71.82;45.95;;;;;;;18.08;46.47;101114.47;5035210;28;20048;-74
2022/03/16 08:18:31;;;;;;;69.60;43.55;;;;;;;18.75;46.08;101117.03;5033773;28;20091;-74
2022/03/16 08:20:58;;;;;;;73.55;45.03;;;;;;;19.36;42.51;101114.41;5035262;28;20457;-77
2022/03/16 08:23:24;;;;;;;61.42;43.15;;;;;;;19.61;42.15;101106.88;5017352;28;20080;-75
2022/03/16 08:25:51;;;;;;;68.03;45.45;;;;;;;19.89;41.74;101115.59;5035271;28;20058;-75
2022/03/16 08:28:16;;;;;;;76.20;48.35;;;;;;;20.07;40.03;101124.56;5017705;28;20034;-75
2022/03/16 08:30:44;;;;;;;68.45;46.72;;;;;;;19.93;40.86;101116.91;5035528;28;20485;-76
2022/03/16 08:33:10;;;;;;;76.45;48.70;;;;;;;20.11;39.88;101118.50;5037470;28;20037;-76
2022/03/16 08:35:37;;;;;;;71.20;50.28;;;;;;;20.11;39.69;101115.59;5035255;28;20386;-78
2022/03/16 08:38:02;;;;;;;69.13;49.15;;;;;;;19.92;40.25;101120.34;5035001;28;20172;-77
2022/03/16 08:40:29;;;;;;;72.05;48.80;;;;;;;19.83;40.79;101127.16;5017446;28;20049;-76
2022/03/16 08:42:54;;;;;;;70.47;49.83;;;;;;;19.81;40.85;101124.78;5034642;28;20037;-77
2022/03/16 08:45:19;;;;;;;68.38;47.92;;;;;;;19.83;41.42;101130.81;5017061;28;20032;-78
2022/03/16 08:47:46;;;;;;;64.25;45.63;;;;;;;19.89;40.95;101136.63;5033659;28;20029;-77
2022/03/16 08:50:13;;;;;;;65.40;44.58;;;;;;;19.91;40.54;101139.78;5017655;28;20103;-78
2022/03/16 08:52:38;;;;;;;68.65;45.95;;;;;;;20.02;39.11;101142.69;5033968;28;20048;-78
2022/03/16 08:55:06;;;;;;;61.63;43.60;;;;;;;19.74;39.41;101144.75;5021051;28;20109;-75
2022/03/16 08:57:32;;;;;;;71.45;47.08;;;;;;;19.53;40.39;101155.75;5035028;28;20105;-75
2022/03/16 08:59:59;;;;;;;59.67;42.80;;;;;;;19.44;40.08;101155.97;5033654;28;20037;-76
2022/03/16 09:02:26;;;;;;;66.53;44.97;;;;;;;19.13;41.28;101150.31;5033144;28;20068;-75
2022/03/16 09:04:52;;;;;;;61.20;39.42;;;;;;;19.13;40.57;101161.88;5034837;28;20021;-77
2022/03/16 09:07:17;;;;;;;56.85;40.55;;;;;;;18.94;40.44;101161.53;5036374;28;20037;-76
2022/03/16 09:09:43;;;;;;;60.25;40.70;;;;;;;18.75;40.83;101166.09;5033828;28;20046;-76
2022/03/16 09:12:11;;;;;;;54.70;39.92;;;;;;;18.39;41.04;101162.72;5033265;28;20037;-76
2022/03/16 09:14:39;;;;;;;71.75;42.55;;;;;;;18.04;41.92;101165.03;5017197;28;20049;-74
2022/03/16 09:17:06;;;;;;;62.05;39.88;;;;;;;17.66;42.80;101172.75;5033776;28;20362;-76
2022/03/16 09:19:33;;;;;;;59.15;40.70;;;;;;;17.42;43.63;101177.16;5035804;28;20041;-78
2022/03/16 09:22:00;;;;;;;69.38;41.05;;;;;;;17.35;43.30;101184.19;5035286;28;20492;-77
2022/03/16 09:24:25;;;;;;;65.07;38.78;;;;;;;17.23;43.56;101185.31;5017253;28;20030;-76
2022/03/16 09:27:00;;;;;;;58.15;39.05;;;;;;;17.15;44.20;101182.09;5033828;28;20067;-78
2022/03/16 09:29:29;;;;;;;55.80;39.30;;;;;;;17.06;44.34;101181.44;5035170;28;20512;-78
2022/03/16 09:31:56;;;;;;;54.92;38.33;;;;;;;17.05;43.70;101174.09;5033810;28;20091;-76
2022/03/16 09:34:22;;;;;;;67.05;37.50;;;;;;;16.99;44.13;101188.41;5032838;28;20040;-78
2022/03/16 09:36:47;;;;;;;54.67;38.00;;;;;;;16.88;44.27;101182.50;5034750;28;20112;-76
2022/03/16 09:39:14;;;;;;;65.80;38.10;;;;;;;16.80;44.79;101189.97;5029233;28;20037;-75
2022/03/16 09:41:49;;;;;;;52.13;36.28;;;;;;;16.85;43.78;101192.13;5023364;28;20045;-76
2022/03/16 09:44:16;;;;;;;60.75;38.47;;;;;;;16.69;44.85;101193.47;5015723;28;20034;-77
2022/03/16 09:46:44;;;;;;;61.58;37.60;;;;;;;16.73;45.41;101201.88;5018978;28;20033;-77
2022/03/16 09:49:14;;;;;;;58.90;37.42;;;;;;;16.84;44.73;101199.19;5034586;28;20394;-77
2022/03/16 09:52:29;;;;;;;64.45;33.22;;;;;;;17.02;43.28;101201.78;5017238;28;20034;-77
2022/03/16 09:55:24;;;;;;;48.25;32.67;;;;;;;16.96;43.45;101203.81;5046921;28;20482;-75
2022/03/16 09:57:50;;;;;;;51.45;32.65;;;;;;;16.96;43.48;101208.78;5006236;28;20041;-75
2022/03/16 10:00:21;;;;;;;58.78;34.63;;;;;;;16.87;44.00;101208.91;5002907;28;20043;-75
2022/03/16 10:02:47;;;;;;;54.33;34.53;;;;;;;16.83;44.00;101214.84;5053001;28;20052;-74
2022/03/16 10:05:28;;;;;;;58.80;34.35;;;;;;;16.76;43.13;101223.91;5034638;28;20115;-73
2022/03/16 10:07:54;;;;;;;;;;;;;;;16.67;43.33;101218.28;5053792;28;20039;-74
2022/03/16 10:13:15;;;;;;;62.80;33.10;;;;;;;16.74;44.29;101224.41;5024706;28;20052;-74
2022/03/16 10:15:42;;;;;;;48.70;33.38;;;;;;;16.86;43.92;101216.75;5034619;28;20059;-75
2022/03/16 10:18:08;;;;;;;67.43;37.25;;;;;;;16.97;42.53;101221.88;5035301;28;20056;-74
2022/03/16 10:20:37;;;;;;;50.30;30.25;;;;;;;16.87;42.05;101223.31;5054737;28;20032;-74
2022/03/16 10:23:10;;;;;;;51.30;31.83;;;;;;;16.55;42.76;101225.91;5035920;28;20466;-74
2022/03/16 10:25:38;;;;;;;47.28;31.10;;;;;;;16.33;43.68;101225.56;5036217;28;20025;-74
2022/03/16 10:28:12;;;;;;;51.92;30.55;;;;;;;16.25;44.45;101230.91;5019675;28;20029;-74
2022/03/16 10:30:49;;;;;;;55.28;32.35;;;;;;;16.33;44.44;101234.19;5053637;28;20029;-74
2022/03/16 10:33:16;;;;;;;53.22;30.85;;;;;;;16.41;44.43;101239.03;5032954;28;20032;-73
2022/03/16 10:36:12;;;;;;;52.30;30.35;;;;;;;16.33;43.98;101245.69;5021881;28;20049;-73
2022/03/16 10:39:03;;;;;;;68.35;31.45;;;;;;;16.22;44.11;101249.16;5015281;28;20121;-76
2022/03/16 10:47:24;;;;;;;48.70;31.08;;;;;;;16.55;43.31;101248.13;5032240;28;20091;-75
2022/03/16 10:50:04;;;;;;;55.60;31.50;;;;;;;16.62;42.83;101242.00;5019484;28;20146;-75
2022/03/16 10:52:34;;;;;;;46.10;30.20;;;;;;;16.73;43.14;101242.16;5026881;28;20053;-73
2022/03/16 10:55:02;;;;;;;40.33;27.83;;;;;;;16.84;41.19;101236.59;5018626;28;20053;-73
2022/03/16 10:57:29;;;;;;;41.35;28.55;;;;;;;16.77;41.37;101237.78;5014631;28;20431;-73
2022/03/16 10:59:58;;;;;;;41.60;26.55;;;;;;;16.69;41.05;101248.13;5013510;28;20084;-73
2022/03/16 11:02:29;;;;;;;48.20;29.08;;;;;;;16.55;42.21;101243.16;5010931;28;20029;-72
2022/03/16 11:04:57;;;;;;;44.63;26.58;;;;;;;16.55;42.10;101251.78;5050960;28;20112;-73
2022/03/16 11:07:24;;;;;;;42.97;28.65;;;;;;;16.53;42.17;101251.50;5016700;28;20036;-72
2022/03/16 11:09:51;;;;;;;41.58;27.77;;;;;;;16.54;41.99;101255.97;5033134;28;20021;-73
2022/03/16 11:15:06;;;;;;;36.72;24.23;;;;;;;16.59;40.29;101251.63;5051838;28;20063;-73
2022/03/16 11:17:40;;;;;;;43.58;26.52;;;;;;;16.66;40.25;101248.34;5052403;28;20108;-72
2022/03/16 11:20:10;;;;;;;53.08;28.67;;;;;;;16.61;41.21;101252.72;5017816;28;20540;-74
2022/03/16 11:26:05;;;;;;;44.60;27.10;;;;;;;16.74;40.15;101258.94;5051767;28;20083;-74
2022/03/16 11:29:00;;;;;;;54.47;27.35;;;;;;;16.55;40.51;101257.56;5051135;28;20429;-73
2022/03/16 11:31:29;;;;;;;37.17;26.75;;;;;;;16.54;40.29;101255.16;5036147;28;20041;-74